sensor_id;sensor_type;location;lat;lon;timestamp;P1;durP1;ratioP1;P2;durP2;ratioP2
54699;SDS011;40599;53.132;6.090;2023-02-28T00:00:51;16.30;;;7.50;;
54699;SDS011;40599;53.132;6.090;2023-02-28T00:03:17;13.63;;;6.85;;
54699;SDS011;40599;53.132;6.090;2023-02-28T00:05:44;12.10;;;7.18;;
54699;SDS011;40599;53.132;6.090;2023-02-28T00:08:10;12.75;;;7.15;;
54699;SDS011;40599;53.132;6.090;2023-02-28T00:10:36;8.10;;;6.70;;
54699;SDS011;40599;53.132;6.090;2023-02-28T00:13:03;13.60;;;7.18;;
54699;SDS011;40599;53.132;6.090;2023-02-28T00:17:56;14.68;;;7.25;;
54699;SDS011;40599;53.132;6.090;2023-02-28T00:20:22;14.98;;;7.53;;
54699;SDS011;40599;53.132;6.090;2023-02-28T00:22:50;11.77;;;7.05;;
54699;SDS011;40599;53.132;6.090;2023-02-28T00:25:21;14.60;;;7.80;;
54699;SDS011;40599;53.132;6.090;2023-02-28T00:27:48;11.57;;;7.05;;
54699;SDS011;40599;53.132;6.090;2023-02-28T00:30:15;13.15;;;6.97;;
54699;SDS011;40599;53.132;6.090;2023-02-28T00:32:41;13.95;;;7.57;;
54699;SDS011;40599;53.132;6.090;2023-02-28T00:35:08;15.43;;;7.57;;
54699;SDS011;40599;53.132;6.090;2023-02-28T00:37:35;14.07;;;7.75;;
54699;SDS011;40599;53.132;6.090;2023-02-28T00:40:01;15.48;;;7.75;;
54699;SDS011;40599;53.132;6.090;2023-02-28T00:42:30;16.73;;;7.90;;
54699;SDS011;40599;53.132;6.090;2023-02-28T00:44:56;21.67;;;7.53;;
54699;SDS011;40599;53.132;6.090;2023-02-28T00:47:22;18.58;;;8.13;;
54699;SDS011;40599;53.132;6.090;2023-02-28T00:49:48;14.35;;;6.53;;
54699;SDS011;40599;53.132;6.090;2023-02-28T00:52:14;13.05;;;7.25;;
54699;SDS011;40599;53.132;6.090;2023-02-28T00:54:40;14.30;;;7.03;;
54699;SDS011;40599;53.132;6.090;2023-02-28T00:57:06;14.63;;;6.57;;
54699;SDS011;40599;53.132;6.090;2023-02-28T00:59:32;15.27;;;6.35;;
54699;SDS011;40599;53.132;6.090;2023-02-28T01:01:59;14.80;;;6.88;;
54699;SDS011;40599;53.132;6.090;2023-02-28T01:04:25;14.65;;;7.03;;
54699;SDS011;40599;53.132;6.090;2023-02-28T01:06:51;13.93;;;7.30;;
54699;SDS011;40599;53.132;6.090;2023-02-28T01:09:17;14.30;;;7.03;;
54699;SDS011;40599;53.132;6.090;2023-02-28T01:11:43;12.07;;;7.45;;
54699;SDS011;40599;53.132;6.090;2023-02-28T01:14:13;14.98;;;6.68;;
54699;SDS011;40599;53.132;6.090;2023-02-28T01:16:39;13.90;;;6.43;;
54699;SDS011;40599;53.132;6.090;2023-02-28T01:19:07;17.67;;;8.02;;
54699;SDS011;40599;53.132;6.090;2023-02-28T01:21:33;14.32;;;7.35;;
54699;SDS011;40599;53.132;6.090;2023-02-28T01:24:01;12.38;;;6.38;;
54699;SDS011;40599;53.132;6.090;2023-02-28T01:26:27;13.65;;;7.15;;
54699;SDS011;40599;53.132;6.090;2023-02-28T01:28:53;13.10;;;6.45;;
54699;SDS011;40599;53.132;6.090;2023-02-28T01:31:20;12.50;;;6.82;;
54699;SDS011;40599;53.132;6.090;2023-02-28T01:33:46;10.23;;;6.90;;
54699;SDS011;40599;53.132;6.090;2023-02-28T01:36:15;17.95;;;7.45;;
54699;SDS011;40599;53.132;6.090;2023-02-28T01:38:42;15.23;;;7.25;;
54699;SDS011;40599;53.132;6.090;2023-02-28T01:41:09;18.63;;;6.75;;
54699;SDS011;40599;53.132;6.090;2023-02-28T01:46:09;7.90;;;5.80;;
54699;SDS011;40599;53.132;6.090;2023-02-28T01:48:36;12.05;;;6.43;;
54699;SDS011;40599;53.132;6.090;2023-02-28T01:51:05;14.48;;;6.78;;
54699;SDS011;40599;53.132;6.090;2023-02-28T01:53:33;14.73;;;6.75;;
54699;SDS011;40599;53.132;6.090;2023-02-28T01:56:00;16.60;;;6.88;;
54699;SDS011;40599;53.132;6.090;2023-02-28T01:58:30;10.65;;;6.47;;
54699;SDS011;40599;53.132;6.090;2023-02-28T02:00:56;9.50;;;5.75;;
54699;SDS011;40599;53.132;6.090;2023-02-28T02:03:22;17.88;;;7.25;;
54699;SDS011;40599;53.132;6.090;2023-02-28T02:05:49;12.02;;;6.32;;
54699;SDS011;40599;53.132;6.090;2023-02-28T02:08:17;10.02;;;6.80;;
54699;SDS011;40599;53.132;6.090;2023-02-28T02:10:45;14.80;;;6.88;;
54699;SDS011;40599;53.132;6.090;2023-02-28T02:13:29;11.55;;;6.72;;
54699;SDS011;40599;53.132;6.090;2023-02-28T02:18:43;14.35;;;6.47;;
54699;SDS011;40599;53.132;6.090;2023-02-28T02:31:50;12.57;;;6.65;;
54699;SDS011;40599;53.132;6.090;2023-02-28T02:39:36;20.63;;;7.13;;
54699;SDS011;40599;53.132;6.090;2023-02-28T02:42:06;19.83;;;6.80;;
54699;SDS011;40599;53.132;6.090;2023-02-28T02:44:37;15.00;;;6.75;;
54699;SDS011;40599;53.132;6.090;2023-02-28T02:47:09;15.02;;;6.80;;
54699;SDS011;40599;53.132;6.090;2023-02-28T02:49:37;16.40;;;7.35;;
54699;SDS011;40599;53.132;6.090;2023-02-28T02:52:04;15.82;;;7.30;;
54699;SDS011;40599;53.132;6.090;2023-02-28T02:54:35;13.63;;;6.47;;
54699;SDS011;40599;53.132;6.090;2023-02-28T02:57:22;17.48;;;7.30;;
54699;SDS011;40599;53.132;6.090;2023-02-28T02:59:48;13.18;;;7.28;;
54699;SDS011;40599;53.132;6.090;2023-02-28T03:02:15;15.73;;;6.53;;
54699;SDS011;40599;53.132;6.090;2023-02-28T03:07:09;10.57;;;7.13;;
54699;SDS011;40599;53.132;6.090;2023-02-28T03:09:35;13.38;;;6.82;;
54699;SDS011;40599;53.132;6.090;2023-02-28T03:12:01;10.80;;;6.13;;
54699;SDS011;40599;53.132;6.090;2023-02-28T03:14:31;10.35;;;5.85;;
54699;SDS011;40599;53.132;6.090;2023-02-28T03:24:27;12.38;;;6.53;;
54699;SDS011;40599;53.132;6.090;2023-02-28T03:26:55;13.93;;;6.80;;
54699;SDS011;40599;53.132;6.090;2023-02-28T03:29:28;13.38;;;6.38;;
54699;SDS011;40599;53.132;6.090;2023-02-28T03:31:58;11.80;;;6.32;;
54699;SDS011;40599;53.132;6.090;2023-02-28T03:34:33;9.68;;;6.68;;
54699;SDS011;40599;53.132;6.090;2023-02-28T03:37:07;14.05;;;6.70;;
54699;SDS011;40599;53.132;6.090;2023-02-28T03:39:39;17.27;;;7.15;;
54699;SDS011;40599;53.132;6.090;2023-02-28T03:42:08;16.88;;;7.00;;
54699;SDS011;40599;53.132;6.090;2023-02-28T03:44:54;11.57;;;6.10;;
54699;SDS011;40599;53.132;6.090;2023-02-28T03:47:31;8.98;;;5.63;;
54699;SDS011;40599;53.132;6.090;2023-02-28T03:52:31;9.63;;;6.30;;
54699;SDS011;40599;53.132;6.090;2023-02-28T03:54:59;13.50;;;6.75;;
54699;SDS011;40599;53.132;6.090;2023-02-28T03:59:59;11.48;;;6.35;;
54699;SDS011;40599;53.132;6.090;2023-02-28T04:02:25;10.95;;;6.53;;
54699;SDS011;40599;53.132;6.090;2023-02-28T04:04:51;10.48;;;6.50;;
54699;SDS011;40599;53.132;6.090;2023-02-28T04:07:18;11.23;;;6.57;;
54699;SDS011;40599;53.132;6.090;2023-02-28T04:09:44;10.82;;;6.07;;
54699;SDS011;40599;53.132;6.090;2023-02-28T04:12:10;12.80;;;6.38;;
54699;SDS011;40599;53.132;6.090;2023-02-28T04:14:36;16.38;;;6.88;;
54699;SDS011;40599;53.132;6.090;2023-02-28T04:17:02;11.00;;;6.40;;
54699;SDS011;40599;53.132;6.090;2023-02-28T04:19:28;14.32;;;6.85;;
54699;SDS011;40599;53.132;6.090;2023-02-28T04:21:54;12.68;;;6.35;;
54699;SDS011;40599;53.132;6.090;2023-02-28T04:24:22;17.23;;;7.07;;
54699;SDS011;40599;53.132;6.090;2023-02-28T04:26:49;8.57;;;6.25;;
54699;SDS011;40599;53.132;6.090;2023-02-28T04:29:23;11.40;;;6.68;;
54699;SDS011;40599;53.132;6.090;2023-02-28T04:31:50;10.18;;;7.15;;
54699;SDS011;40599;53.132;6.090;2023-02-28T04:34:18;12.38;;;7.88;;
54699;SDS011;40599;53.132;6.090;2023-02-28T04:36:44;12.98;;;6.88;;
54699;SDS011;40599;53.132;6.090;2023-02-28T04:39:11;14.30;;;6.85;;
54699;SDS011;40599;53.132;6.090;2023-02-28T04:41:37;13.10;;;6.28;;
54699;SDS011;40599;53.132;6.090;2023-02-28T04:44:03;11.40;;;7.00;;
54699;SDS011;40599;53.132;6.090;2023-02-28T04:46:30;11.88;;;7.90;;
54699;SDS011;40599;53.132;6.090;2023-02-28T04:48:56;10.63;;;7.82;;
54699;SDS011;40599;53.132;6.090;2023-02-28T04:51:23;12.85;;;9.73;;
54699;SDS011;40599;53.132;6.090;2023-02-28T04:53:49;12.80;;;8.98;;
54699;SDS011;40599;53.132;6.090;2023-02-28T04:56:16;12.23;;;9.73;;
54699;SDS011;40599;53.132;6.090;2023-02-28T04:58:42;11.65;;;10.13;;
54699;SDS011;40599;53.132;6.090;2023-02-28T05:01:28;13.68;;;10.55;;
54699;SDS011;40599;53.132;6.090;2023-02-28T05:03:55;16.25;;;11.52;;
54699;SDS011;40599;53.132;6.090;2023-02-28T05:06:22;13.35;;;11.27;;
54699;SDS011;40599;53.132;6.090;2023-02-28T05:08:49;16.13;;;11.55;;
54699;SDS011;40599;53.132;6.090;2023-02-28T05:13:44;17.73;;;11.25;;
54699;SDS011;40599;53.132;6.090;2023-02-28T05:16:11;18.45;;;10.45;;
54699;SDS011;40599;53.132;6.090;2023-02-28T05:18:37;12.30;;;9.55;;
54699;SDS011;40599;53.132;6.090;2023-02-28T05:21:03;12.50;;;9.85;;
54699;SDS011;40599;53.132;6.090;2023-02-28T05:23:29;11.38;;;8.50;;
54699;SDS011;40599;53.132;6.090;2023-02-28T05:25:56;10.02;;;8.93;;
54699;SDS011;40599;53.132;6.090;2023-02-28T05:28:22;10.68;;;9.27;;
54699;SDS011;40599;53.132;6.090;2023-02-28T05:30:48;11.15;;;9.82;;
54699;SDS011;40599;53.132;6.090;2023-02-28T05:33:15;10.65;;;8.80;;
54699;SDS011;40599;53.132;6.090;2023-02-28T05:35:41;11.93;;;9.50;;
54699;SDS011;40599;53.132;6.090;2023-02-28T05:38:07;10.77;;;9.45;;
54699;SDS011;40599;53.132;6.090;2023-02-28T05:40:34;12.75;;;10.02;;
54699;SDS011;40599;53.132;6.090;2023-02-28T05:43:00;14.45;;;10.45;;
54699;SDS011;40599;53.132;6.090;2023-02-28T05:45:26;11.77;;;9.95;;
54699;SDS011;40599;53.132;6.090;2023-02-28T05:47:53;13.85;;;10.05;;
54699;SDS011;40599;53.132;6.090;2023-02-28T05:50:19;18.17;;;10.57;;
54699;SDS011;40599;53.132;6.090;2023-02-28T05:52:49;15.50;;;10.90;;
54699;SDS011;40599;53.132;6.090;2023-02-28T05:55:16;14.50;;;11.10;;
54699;SDS011;40599;53.132;6.090;2023-02-28T05:57:42;15.63;;;11.13;;
54699;SDS011;40599;53.132;6.090;2023-02-28T06:00:08;16.20;;;11.98;;
54699;SDS011;40599;53.132;6.090;2023-02-28T06:02:35;11.57;;;9.70;;
54699;SDS011;40599;53.132;6.090;2023-02-28T06:05:01;16.02;;;11.25;;
54699;SDS011;40599;53.132;6.090;2023-02-28T06:07:27;16.85;;;11.27;;
54699;SDS011;40599;53.132;6.090;2023-02-28T06:09:53;14.63;;;10.57;;
54699;SDS011;40599;53.132;6.090;2023-02-28T06:12:19;16.30;;;10.50;;
54699;SDS011;40599;53.132;6.090;2023-02-28T06:14:46;11.45;;;9.73;;
54699;SDS011;40599;53.132;6.090;2023-02-28T06:17:12;12.00;;;9.80;;
54699;SDS011;40599;53.132;6.090;2023-02-28T06:19:38;12.50;;;9.45;;
54699;SDS011;40599;53.132;6.090;2023-02-28T06:22:06;13.63;;;10.38;;
54699;SDS011;40599;53.132;6.090;2023-02-28T06:24:32;13.57;;;9.95;;
54699;SDS011;40599;53.132;6.090;2023-02-28T06:26:58;12.75;;;10.15;;
54699;SDS011;40599;53.132;6.090;2023-02-28T06:29:30;12.00;;;10.05;;
54699;SDS011;40599;53.132;6.090;2023-02-28T06:31:56;12.18;;;10.73;;
54699;SDS011;40599;53.132;6.090;2023-02-28T06:34:22;14.98;;;10.55;;
54699;SDS011;40599;53.132;6.090;2023-02-28T06:36:49;18.08;;;12.93;;
54699;SDS011;40599;53.132;6.090;2023-02-28T06:39:16;16.55;;;12.88;;
54699;SDS011;40599;53.132;6.090;2023-02-28T06:41:42;17.15;;;13.00;;
54699;SDS011;40599;53.132;6.090;2023-02-28T06:44:19;24.33;;;15.15;;
54699;SDS011;40599;53.132;6.090;2023-02-28T06:46:46;20.90;;;15.27;;
54699;SDS011;40599;53.132;6.090;2023-02-28T06:49:12;26.92;;;15.77;;
54699;SDS011;40599;53.132;6.090;2023-02-28T06:51:39;25.90;;;16.15;;
54699;SDS011;40599;53.132;6.090;2023-02-28T06:56:35;21.95;;;15.13;;
54699;SDS011;40599;53.132;6.090;2023-02-28T06:59:01;26.23;;;17.08;;
54699;SDS011;40599;53.132;6.090;2023-02-28T07:01:28;24.20;;;15.38;;
54699;SDS011;40599;53.132;6.090;2023-02-28T07:03:56;19.38;;;14.85;;
54699;SDS011;40599;53.132;6.090;2023-02-28T07:06:23;22.33;;;16.13;;
54699;SDS011;40599;53.132;6.090;2023-02-28T07:08:50;23.52;;;15.00;;
54699;SDS011;40599;53.132;6.090;2023-02-28T07:11:17;22.10;;;15.45;;
54699;SDS011;40599;53.132;6.090;2023-02-28T07:13:43;21.65;;;16.05;;
54699;SDS011;40599;53.132;6.090;2023-02-28T07:16:10;24.40;;;16.00;;
54699;SDS011;40599;53.132;6.090;2023-02-28T07:18:36;24.10;;;16.35;;
54699;SDS011;40599;53.132;6.090;2023-02-28T07:21:03;26.17;;;15.93;;
54699;SDS011;40599;53.132;6.090;2023-02-28T07:23:30;23.38;;;16.15;;
54699;SDS011;40599;53.132;6.090;2023-02-28T07:25:56;20.30;;;14.73;;
54699;SDS011;40599;53.132;6.090;2023-02-28T07:28:22;30.17;;;17.50;;
54699;SDS011;40599;53.132;6.090;2023-02-28T07:30:49;26.60;;;17.60;;
54699;SDS011;40599;53.132;6.090;2023-02-28T07:33:15;32.92;;;19.63;;
54699;SDS011;40599;53.132;6.090;2023-02-28T07:35:41;28.10;;;17.40;;
54699;SDS011;40599;53.132;6.090;2023-02-28T07:38:07;30.17;;;18.13;;
54699;SDS011;40599;53.132;6.090;2023-02-28T07:40:35;31.55;;;19.80;;
54699;SDS011;40599;53.132;6.090;2023-02-28T07:43:02;36.38;;;20.10;;
54699;SDS011;40599;53.132;6.090;2023-02-28T07:45:29;29.63;;;20.05;;
54699;SDS011;40599;53.132;6.090;2023-02-28T07:47:56;32.33;;;19.10;;
54699;SDS011;40599;53.132;6.090;2023-02-28T07:50:22;31.70;;;20.05;;
54699;SDS011;40599;53.132;6.090;2023-02-28T07:52:49;30.02;;;19.65;;
54699;SDS011;40599;53.132;6.090;2023-02-28T07:55:15;30.60;;;19.13;;
54699;SDS011;40599;53.132;6.090;2023-02-28T07:57:42;30.65;;;19.75;;
54699;SDS011;40599;53.132;6.090;2023-02-28T08:00:10;32.38;;;20.13;;
54699;SDS011;40599;53.132;6.090;2023-02-28T08:02:37;28.95;;;19.08;;
54699;SDS011;40599;53.132;6.090;2023-02-28T08:05:04;36.50;;;20.42;;
54699;SDS011;40599;53.132;6.090;2023-02-28T08:07:30;31.92;;;19.35;;
54699;SDS011;40599;53.132;6.090;2023-02-28T08:09:57;30.35;;;19.38;;
54699;SDS011;40599;53.132;6.090;2023-02-28T08:12:23;30.73;;;20.30;;
54699;SDS011;40599;53.132;6.090;2023-02-28T08:14:49;30.08;;;18.98;;
54699;SDS011;40599;53.132;6.090;2023-02-28T08:17:16;28.42;;;19.15;;
54699;SDS011;40599;53.132;6.090;2023-02-28T08:19:42;27.48;;;18.08;;
54699;SDS011;40599;53.132;6.090;2023-02-28T08:22:10;30.90;;;19.52;;
54699;SDS011;40599;53.132;6.090;2023-02-28T08:24:36;31.85;;;18.92;;
54699;SDS011;40599;53.132;6.090;2023-02-28T08:27:03;33.30;;;20.55;;
54699;SDS011;40599;53.132;6.090;2023-02-28T08:29:29;34.08;;;19.77;;
54699;SDS011;40599;53.132;6.090;2023-02-28T08:31:55;29.65;;;19.40;;
54699;SDS011;40599;53.132;6.090;2023-02-28T08:34:22;28.55;;;19.73;;
54699;SDS011;40599;53.132;6.090;2023-02-28T08:36:48;28.77;;;19.23;;
54699;SDS011;40599;53.132;6.090;2023-02-28T08:39:14;30.67;;;20.05;;
54699;SDS011;40599;53.132;6.090;2023-02-28T08:41:41;31.35;;;19.80;;
54699;SDS011;40599;53.132;6.090;2023-02-28T08:44:09;31.70;;;19.50;;
54699;SDS011;40599;53.132;6.090;2023-02-28T08:46:35;32.33;;;20.13;;
54699;SDS011;40599;53.132;6.090;2023-02-28T08:49:01;29.58;;;19.25;;
54699;SDS011;40599;53.132;6.090;2023-02-28T08:51:28;32.92;;;20.75;;
54699;SDS011;40599;53.132;6.090;2023-02-28T08:53:55;29.77;;;20.00;;
54699;SDS011;40599;53.132;6.090;2023-02-28T08:56:21;30.83;;;19.95;;
54699;SDS011;40599;53.132;6.090;2023-02-28T08:58:48;34.22;;;21.23;;
54699;SDS011;40599;53.132;6.090;2023-02-28T09:01:18;32.88;;;20.42;;
54699;SDS011;40599;53.132;6.090;2023-02-28T09:03:45;32.22;;;19.27;;
54699;SDS011;40599;53.132;6.090;2023-02-28T09:06:13;28.42;;;19.05;;
54699;SDS011;40599;53.132;6.090;2023-02-28T09:08:39;27.90;;;18.92;;
54699;SDS011;40599;53.132;6.090;2023-02-28T09:11:05;27.55;;;19.30;;
54699;SDS011;40599;53.132;6.090;2023-02-28T09:13:32;25.95;;;18.40;;
54699;SDS011;40599;53.132;6.090;2023-02-28T09:15:59;30.55;;;17.75;;
54699;SDS011;40599;53.132;6.090;2023-02-28T09:18:25;27.35;;;19.42;;
54699;SDS011;40599;53.132;6.090;2023-02-28T09:20:52;26.95;;;17.88;;
54699;SDS011;40599;53.132;6.090;2023-02-28T09:23:18;23.05;;;17.58;;
54699;SDS011;40599;53.132;6.090;2023-02-28T09:25:45;24.63;;;16.80;;
54699;SDS011;40599;53.132;6.090;2023-02-28T09:28:12;26.75;;;18.67;;
54699;SDS011;40599;53.132;6.090;2023-02-28T09:30:41;26.08;;;17.30;;
54699;SDS011;40599;53.132;6.090;2023-02-28T09:33:07;27.55;;;18.90;;
54699;SDS011;40599;53.132;6.090;2023-02-28T09:35:33;23.10;;;16.40;;
54699;SDS011;40599;53.132;6.090;2023-02-28T09:38:02;28.75;;;19.52;;
54699;SDS011;40599;53.132;6.090;2023-02-28T09:40:28;24.63;;;17.35;;
54699;SDS011;40599;53.132;6.090;2023-02-28T09:42:55;24.25;;;16.85;;
54699;SDS011;40599;53.132;6.090;2023-02-28T09:47:48;19.98;;;14.63;;
54699;SDS011;40599;53.132;6.090;2023-02-28T09:52:58;21.55;;;16.50;;
54699;SDS011;40599;53.132;6.090;2023-02-28T09:55:37;22.05;;;16.15;;
54699;SDS011;40599;53.132;6.090;2023-02-28T09:58:05;19.58;;;13.80;;
54699;SDS011;40599;53.132;6.090;2023-02-28T10:00:33;20.02;;;13.98;;
54699;SDS011;40599;53.132;6.090;2023-02-28T10:08:02;17.70;;;12.68;;
54699;SDS011;40599;53.132;6.090;2023-02-28T10:10:47;18.60;;;12.43;;
54699;SDS011;40599;53.132;6.090;2023-02-28T10:15:43;17.70;;;11.90;;
54699;SDS011;40599;53.132;6.090;2023-02-28T10:20:37;15.35;;;11.20;;
54699;SDS011;40599;53.132;6.090;2023-02-28T10:23:13;15.25;;;10.75;;
54699;SDS011;40599;53.132;6.090;2023-02-28T10:25:44;14.77;;;10.70;;
54699;SDS011;40599;53.132;6.090;2023-02-28T10:28:16;14.02;;;10.02;;
54699;SDS011;40599;53.132;6.090;2023-02-28T10:30:46;12.80;;;9.43;;
54699;SDS011;40599;53.132;6.090;2023-02-28T10:35:45;10.40;;;8.77;;
54699;SDS011;40599;53.132;6.090;2023-02-28T10:38:20;14.82;;;9.50;;
54699;SDS011;40599;53.132;6.090;2023-02-28T10:40:47;12.23;;;7.38;;
54699;SDS011;40599;53.132;6.090;2023-02-28T10:45:39;9.38;;;7.18;;
54699;SDS011;40599;53.132;6.090;2023-02-28T10:50:53;8.90;;;6.90;;
54699;SDS011;40599;53.132;6.090;2023-02-28T10:55:59;9.98;;;7.28;;
54699;SDS011;40599;53.132;6.090;2023-02-28T10:58:28;12.15;;;7.70;;
54699;SDS011;40599;53.132;6.090;2023-02-28T11:00:54;9.57;;;6.97;;
54699;SDS011;40599;53.132;6.090;2023-02-28T11:03:31;9.70;;;7.88;;
54699;SDS011;40599;53.132;6.090;2023-02-28T11:05:57;9.45;;;6.90;;
54699;SDS011;40599;53.132;6.090;2023-02-28T11:08:24;10.73;;;7.88;;
54699;SDS011;40599;53.132;6.090;2023-02-28T11:10:54;11.73;;;8.55;;
54699;SDS011;40599;53.132;6.090;2023-02-28T11:13:24;11.32;;;8.38;;
54699;SDS011;40599;53.132;6.090;2023-02-28T11:15:52;11.88;;;7.95;;
54699;SDS011;40599;53.132;6.090;2023-02-28T11:20:47;11.95;;;7.47;;
54699;SDS011;40599;53.132;6.090;2023-02-28T11:23:15;11.27;;;7.47;;
54699;SDS011;40599;53.132;6.090;2023-02-28T11:25:45;10.43;;;6.70;;
54699;SDS011;40599;53.132;6.090;2023-02-28T11:28:26;10.55;;;7.60;;
54699;SDS011;40599;53.132;6.090;2023-02-28T11:33:29;10.52;;;6.90;;
54699;SDS011;40599;53.132;6.090;2023-02-28T11:36:01;9.80;;;7.22;;
54699;SDS011;40599;53.132;6.090;2023-02-28T11:38:28;9.85;;;6.97;;
54699;SDS011;40599;53.132;6.090;2023-02-28T11:45:51;7.53;;;6.55;;
54699;SDS011;40599;53.132;6.090;2023-02-28T11:48:23;10.10;;;6.60;;
54699;SDS011;40599;53.132;6.090;2023-02-28T11:56:05;8.20;;;6.55;;
54699;SDS011;40599;53.132;6.090;2023-02-28T11:59:22;8.10;;;6.38;;
54699;SDS011;40599;53.132;6.090;2023-02-28T12:01:32;6.80;;;6.10;;
54699;SDS011;40599;53.132;6.090;2023-02-28T12:06:33;8.13;;;6.40;;
54699;SDS011;40599;53.132;6.090;2023-02-28T12:19:20;8.35;;;6.60;;
54699;SDS011;40599;53.132;6.090;2023-02-28T12:21:50;9.43;;;7.05;;
54699;SDS011;40599;53.132;6.090;2023-02-28T12:26:51;11.10;;;6.70;;
54699;SDS011;40599;53.132;6.090;2023-02-28T12:29:21;10.10;;;7.00;;
54699;SDS011;40599;53.132;6.090;2023-02-28T12:34:16;9.82;;;7.40;;
54699;SDS011;40599;53.132;6.090;2023-02-28T12:36:45;9.30;;;7.20;;
54699;SDS011;40599;53.132;6.090;2023-02-28T12:39:16;8.05;;;6.57;;
54699;SDS011;40599;53.132;6.090;2023-02-28T12:44:30;7.97;;;7.10;;
54699;SDS011;40599;53.132;6.090;2023-02-28T12:47:01;7.60;;;6.70;;
54699;SDS011;40599;53.132;6.090;2023-02-28T12:49:34;9.02;;;6.72;;
54699;SDS011;40599;53.132;6.090;2023-02-28T12:52:03;9.48;;;7.03;;
54699;SDS011;40599;53.132;6.090;2023-02-28T12:57:25;8.90;;;7.10;;
54699;SDS011;40599;53.132;6.090;2023-02-28T12:59:59;9.07;;;6.93;;
54699;SDS011;40599;53.132;6.090;2023-02-28T13:10:19;9.95;;;7.38;;
54699;SDS011;40599;53.132;6.090;2023-02-28T13:12:52;10.05;;;7.57;;
54699;SDS011;40599;53.132;6.090;2023-02-28T13:15:26;9.23;;;7.97;;
54699;SDS011;40599;53.132;6.090;2023-02-28T13:18:00;8.30;;;7.38;;
54699;SDS011;40599;53.132;6.090;2023-02-28T13:20:34;8.88;;;7.70;;
54699;SDS011;40599;53.132;6.090;2023-02-28T13:23:01;9.45;;;7.78;;
54699;SDS011;40599;53.132;6.090;2023-02-28T13:28:03;11.07;;;7.43;;
54699;SDS011;40599;53.132;6.090;2023-02-28T13:38:39;8.75;;;7.50;;
54699;SDS011;40599;53.132;6.090;2023-02-28T13:44:01;10.00;;;7.90;;
54699;SDS011;40599;53.132;6.090;2023-02-28T13:48:54;10.88;;;7.70;;
54699;SDS011;40599;53.132;6.090;2023-02-28T13:56:51;12.57;;;8.75;;
54699;SDS011;40599;53.132;6.090;2023-02-28T14:06:51;8.60;;;7.60;;
54699;SDS011;40599;53.132;6.090;2023-02-28T14:09:21;9.93;;;7.82;;
54699;SDS011;40599;53.132;6.090;2023-02-28T14:11:49;10.88;;;7.70;;
54699;SDS011;40599;53.132;6.090;2023-02-28T14:17:00;11.13;;;7.32;;
54699;SDS011;40599;53.132;6.090;2023-02-28T14:19:28;9.55;;;6.78;;
54699;SDS011;40599;53.132;6.090;2023-02-28T14:22:02;7.47;;;6.72;;
54699;SDS011;40599;53.132;6.090;2023-02-28T14:27:32;9.13;;;7.03;;
54699;SDS011;40599;53.132;6.090;2023-02-28T14:37:41;8.82;;;7.10;;
54699;SDS011;40599;53.132;6.090;2023-02-28T14:40:12;8.00;;;6.95;;
54699;SDS011;40599;53.132;6.090;2023-02-28T14:42:45;8.77;;;7.60;;
54699;SDS011;40599;53.132;6.090;2023-02-28T14:45:22;7.70;;;6.90;;
54699;SDS011;40599;53.132;6.090;2023-02-28T14:47:49;10.00;;;7.00;;
54699;SDS011;40599;53.132;6.090;2023-02-28T14:50:49;7.68;;;6.63;;
54699;SDS011;40599;53.132;6.090;2023-02-28T14:53:15;8.95;;;7.07;;
54699;SDS011;40599;53.132;6.090;2023-02-28T14:55:44;10.13;;;6.68;;
54699;SDS011;40599;53.132;6.090;2023-02-28T14:58:30;10.82;;;6.72;;
54699;SDS011;40599;53.132;6.090;2023-02-28T15:01:00;8.55;;;6.65;;
54699;SDS011;40599;53.132;6.090;2023-02-28T15:03:34;11.10;;;7.35;;
54699;SDS011;40599;53.132;6.090;2023-02-28T15:06:12;8.25;;;6.80;;
54699;SDS011;40599;53.132;6.090;2023-02-28T15:08:38;7.13;;;6.40;;
54699;SDS011;40599;53.132;6.090;2023-02-28T15:11:06;8.80;;;6.45;;
54699;SDS011;40599;53.132;6.090;2023-02-28T15:16:10;7.63;;;6.47;;
54699;SDS011;40599;53.132;6.090;2023-02-28T15:18:42;8.48;;;6.28;;
54699;SDS011;40599;53.132;6.090;2023-02-28T15:23:42;12.00;;;6.53;;
54699;SDS011;40599;53.132;6.090;2023-02-28T15:26:20;9.60;;;6.55;;
54699;SDS011;40599;53.132;6.090;2023-02-28T15:28:48;7.07;;;6.30;;
54699;SDS011;40599;53.132;6.090;2023-02-28T15:31:20;7.57;;;6.30;;
54699;SDS011;40599;53.132;6.090;2023-02-28T15:33:58;8.85;;;6.57;;
54699;SDS011;40599;53.132;6.090;2023-02-28T15:36:32;8.55;;;6.45;;
54699;SDS011;40599;53.132;6.090;2023-02-28T15:39:02;8.60;;;6.90;;
54699;SDS011;40599;53.132;6.090;2023-02-28T15:41:30;7.43;;;6.55;;
54699;SDS011;40599;53.132;6.090;2023-02-28T15:47:24;9.90;;;7.13;;
54699;SDS011;40599;53.132;6.090;2023-02-28T15:49:34;9.70;;;6.82;;
54699;SDS011;40599;53.132;6.090;2023-02-28T15:52:03;8.93;;;7.18;;
54699;SDS011;40599;53.132;6.090;2023-02-28T15:54:30;11.05;;;8.13;;
54699;SDS011;40599;53.132;6.090;2023-02-28T15:57:00;10.95;;;7.82;;
54699;SDS011;40599;53.132;6.090;2023-02-28T15:59:27;9.43;;;8.13;;
54699;SDS011;40599;53.132;6.090;2023-02-28T16:02:11;11.10;;;8.30;;
54699;SDS011;40599;53.132;6.090;2023-02-28T16:04:54;11.57;;;8.20;;
54699;SDS011;40599;53.132;6.090;2023-02-28T16:07:20;10.60;;;8.50;;
54699;SDS011;40599;53.132;6.090;2023-02-28T16:09:46;10.23;;;8.20;;
54699;SDS011;40599;53.132;6.090;2023-02-28T16:12:13;10.70;;;9.25;;
54699;SDS011;40599;53.132;6.090;2023-02-28T16:14:39;10.48;;;9.18;;
54699;SDS011;40599;53.132;6.090;2023-02-28T16:17:07;12.35;;;8.52;;
54699;SDS011;40599;53.132;6.090;2023-02-28T16:19:36;12.52;;;8.88;;
54699;SDS011;40599;53.132;6.090;2023-02-28T16:22:02;10.23;;;8.27;;
54699;SDS011;40599;53.132;6.090;2023-02-28T16:24:28;13.07;;;8.63;;
54699;SDS011;40599;53.132;6.090;2023-02-28T16:26:55;10.70;;;9.05;;
54699;SDS011;40599;53.132;6.090;2023-02-28T16:29:26;8.48;;;7.68;;
54699;SDS011;40599;53.132;6.090;2023-02-28T16:31:53;9.73;;;8.43;;
54699;SDS011;40599;53.132;6.090;2023-02-28T16:34:20;14.30;;;9.00;;
54699;SDS011;40599;53.132;6.090;2023-02-28T16:36:46;11.10;;;9.25;;
54699;SDS011;40599;53.132;6.090;2023-02-28T16:39:13;9.98;;;6.95;;
54699;SDS011;40599;53.132;6.090;2023-02-28T16:41:39;12.02;;;9.05;;
54699;SDS011;40599;53.132;6.090;2023-02-28T16:44:09;11.45;;;9.23;;
54699;SDS011;40599;53.132;6.090;2023-02-28T16:46:36;10.68;;;9.00;;
54699;SDS011;40599;53.132;6.090;2023-02-28T16:49:03;12.73;;;9.57;;
54699;SDS011;40599;53.132;6.090;2023-02-28T16:51:29;11.40;;;9.45;;
54699;SDS011;40599;53.132;6.090;2023-02-28T16:53:55;13.50;;;9.70;;
54699;SDS011;40599;53.132;6.090;2023-02-28T16:56:22;11.02;;;9.80;;
54699;SDS011;40599;53.132;6.090;2023-02-28T16:58:49;14.02;;;9.50;;
54699;SDS011;40599;53.132;6.090;2023-02-28T17:01:16;12.18;;;10.65;;
54699;SDS011;40599;53.132;6.090;2023-02-28T17:03:46;13.18;;;10.30;;
54699;SDS011;40599;53.132;6.090;2023-02-28T17:06:16;16.13;;;10.35;;
54699;SDS011;40599;53.132;6.090;2023-02-28T17:08:43;14.40;;;11.57;;
54699;SDS011;40599;53.132;6.090;2023-02-28T17:11:09;14.95;;;11.48;;
54699;SDS011;40599;53.132;6.090;2023-02-28T17:13:40;20.30;;;14.13;;
54699;SDS011;40599;53.132;6.090;2023-02-28T17:16:10;24.25;;;15.85;;
54699;SDS011;40599;53.132;6.090;2023-02-28T17:18:39;24.20;;;15.82;;
54699;SDS011;40599;53.132;6.090;2023-02-28T17:21:09;25.92;;;15.45;;
54699;SDS011;40599;53.132;6.090;2023-02-28T17:23:38;19.13;;;13.57;;
54699;SDS011;40599;53.132;6.090;2023-02-28T17:26:04;18.20;;;14.05;;